Time;durP1;ratioP1;P1;durP2;ratioP2;P2;SDS_P1;SDS_P2;PMS_P1;PMS_P2;Temp;Humidity;BMP_temperature;BMP_pressure;BME280_temperature;BME280_humidity;BME280_pressure;Samples;Min_cycle;Max_cycle;Signal;HPM_P1;HPM_P2
2024/02/03 00:00:52;;;;;;;2.20;0.50;;;10.20;73.90;;;;;;5066055;28;20678;-77
2024/02/03 00:03:18;;;;;;;1.05;0.50;;;10.20;73.70;;;;;;5065489;28;20039;-77
2024/02/03 00:05:45;;;;;;;1.45;0.55;;;10.20;73.60;;;;;;5065597;28;20040;-77
2024/02/03 00:08:11;;;;;;;2.55;0.70;;;10.10;73.50;;;;;;5047361;28;20119;-78
2024/02/03 00:10:37;;;;;;;3.97;0.88;;;10.10;73.50;;;;;;5065358;28;20590;-78
2024/02/03 00:13:10;;;;;;;1.63;0.77;;;10.10;73.40;;;;;;5066148;28;20510;-78
2024/02/03 00:15:36;;;;;;;0.85;0.55;;;10.10;73.40;;;;;;5064737;28;20040;-77
2024/02/03 00:18:02;;;;;;;1.77;0.70;;;10.10;73.60;;;;;;5069521;28;20048;-77
2024/02/03 00:20:28;;;;;;;2.47;0.70;;;10.10;73.90;;;;;;5035844;28;20033;-78
2024/02/03 00:22:55;;;;;;;2.25;0.80;;;10.10;73.80;;;;;;5068360;28;20040;-77
2024/02/03 00:25:21;;;;;;;1.58;0.80;;;10.10;73.80;;;;;;5051178;28;20181;-78
2024/02/03 00:27:48;;;;;;;2.10;0.93;;;10.10;73.80;;;;;;5084435;28;20080;-77
2024/02/03 00:30:14;;;;;;;2.00;0.60;;;10.10;73.80;;;;;;5069898;28;20028;-77
2024/02/03 00:32:40;;;;;;;2.75;0.98;;;10.10;73.90;;;;;;5069285;28;20024;-77
2024/02/03 00:35:07;;;;;;;2.30;0.70;;;10.10;73.80;;;;;;5049903;28;20041;-76
2024/02/03 00:37:33;;;;;;;1.40;0.70;;;10.00;73.90;;;;;;5067451;28;20032;-77
2024/02/03 00:39:59;;;;;;;1.95;0.82;;;10.00;73.80;;;;;;5067014;28;20090;-78
2024/02/03 00:42:25;;;;;;;1.95;0.60;;;10.10;74.00;;;;;;5068439;28;20564;-78
2024/02/03 00:44:51;;;;;;;1.40;0.60;;;10.00;74.20;;;;;;5067827;28;20067;-78
2024/02/03 00:47:17;;;;;;;1.55;0.60;;;10.00;74.20;;;;;;5067636;28;20060;-79
2024/02/03 00:49:44;;;;;;;2.33;0.75;;;10.00;74.70;;;;;;5063201;28;20371;-78
2024/02/03 00:52:10;;;;;;;2.20;0.90;;;10.00;74.00;;;;;;5069664;28;20131;-77
2024/02/03 00:54:37;;;;;;;2.50;0.65;;;10.00;74.00;;;;;;5067603;28;20087;-77
2024/02/03 00:57:04;;;;;;;1.13;0.73;;;10.00;73.80;;;;;;5068994;28;20055;-79
2024/02/03 00:59:30;;;;;;;2.05;0.75;;;10.00;73.90;;;;;;5067639;28;20043;-78
2024/02/03 01:01:56;;;;;;;1.02;0.40;;;10.00;74.10;;;;;;5048379;28;20036;-78
2024/02/03 01:04:22;;;;;;;1.17;0.65;;;10.00;74.30;;;;;;5050455;28;20033;-78
2024/02/03 01:06:49;;;;;;;1.40;0.50;;;9.90;74.20;;;;;;5069069;28;20033;-78
2024/02/03 01:09:17;;;;;;;1.63;0.82;;;9.90;74.00;;;;;;5037046;28;20107;-77
2024/02/03 01:11:43;;;;;;;1.38;0.50;;;10.00;74.10;;;;;;5067459;28;20055;-78
2024/02/03 01:14:10;;;;;;;2.20;0.73;;;9.90;74.00;;;;;;5068880;28;20185;-78
2024/02/03 01:16:36;;;;;;;1.08;0.60;;;9.90;73.80;;;;;;5063701;28;20028;-79
2024/02/03 01:19:03;;;;;;;1.73;0.60;;;9.90;73.80;;;;;;5050015;28;21678;-78
2024/02/03 01:21:29;;;;;;;1.75;0.80;;;9.90;73.80;;;;;;5084378;28;20032;-78
2024/02/03 01:23:56;;;;;;;1.88;0.68;;;9.90;73.70;;;;;;5084279;28;20031;-78
2024/02/03 01:26:22;;;;;;;1.83;0.50;;;9.90;73.80;;;;;;5033941;28;20068;-78
2024/02/03 01:28:48;;;;;;;1.80;0.73;;;9.80;73.80;;;;;;5065948;28;20043;-78
2024/02/03 01:31:14;;;;;;;1.08;0.50;;;9.80;74.00;;;;;;5066696;28;20040;-78
2024/02/03 01:33:40;;;;;;;1.73;1.00;;;9.80;74.30;;;;;;5067591;28;20443;-78
2024/02/03 01:36:07;;;;;;;1.77;0.70;;;9.90;74.30;;;;;;5050324;28;20036;-79
2024/02/03 01:38:33;;;;;;;4.20;0.90;;;9.90;74.70;;;;;;5050218;28;20112;-78
2024/02/03 01:40:59;;;;;;;2.03;0.60;;;9.80;74.40;;;;;;5067219;28;20111;-78
2024/02/03 01:43:26;;;;;;;1.95;0.68;;;9.80;74.40;;;;;;5067537;28;20025;-78
2024/02/03 01:45:52;;;;;;;1.65;0.50;;;9.80;74.60;;;;;;5049833;28;20032;-79
2024/02/03 01:48:19;;;;;;;3.53;1.00;;;9.80;74.70;;;;;;5062971;28;20031;-79
2024/02/03 01:50:49;;;;;;;1.88;0.80;;;9.80;74.60;;;;;;5067153;28;20028;-78
2024/02/03 01:53:18;;;;;;;1.25;0.68;;;9.80;74.80;;;;;;5066801;28;20039;-78
2024/02/03 01:55:45;;;;;;;1.50;0.65;;;9.80;74.80;;;;;;5065989;28;20040;-78
2024/02/03 01:58:11;;;;;;;2.55;0.80;;;9.80;74.80;;;;;;5067162;28;20449;-78
2024/02/03 02:00:37;;;;;;;0.60;0.50;;;9.70;74.80;;;;;;5064326;28;20040;-78
2024/02/03 02:03:03;;;;;;;3.70;0.88;;;9.70;74.60;;;;;;5065925;28;20032;-78
2024/02/03 02:05:29;;;;;;;1.70;0.85;;;9.70;74.70;;;;;;5068759;28;20028;-79
2024/02/03 02:07:56;;;;;;;1.67;0.50;;;9.70;74.80;;;;;;5062658;28;20033;-79
2024/02/03 02:10:22;;;;;;;1.23;0.80;;;9.70;74.90;;;;;;5068123;28;20060;-79
2024/02/03 02:12:48;;;;;;;0.80;0.40;;;9.70;74.90;;;;;;5067906;28;20542;-79
2024/02/03 02:15:14;;;;;;;1.92;1.00;;;9.70;75.00;;;;;;5082368;28;20510;-79
2024/02/03 02:17:41;;;;;;;1.67;0.50;;;9.70;74.60;;;;;;5067464;28;20048;-78
2024/02/03 02:20:10;;;;;;;1.75;0.77;;;9.70;74.60;;;;;;5066287;28;20036;-79
2024/02/03 02:22:37;;;;;;;1.90;0.60;;;9.70;74.60;;;;;;5067813;28;20059;-79
2024/02/03 02:25:04;;;;;;;1.25;0.70;;;9.70;74.40;;;;;;5049729;28;20453;-79
2024/02/03 02:27:33;;;;;;;1.27;0.60;;;9.60;74.40;;;;;;5066927;28;20044;-79
2024/02/03 02:29:59;;;;;;;1.38;0.52;;;9.60;74.50;;;;;;5065886;28;20032;-77
2024/02/03 02:32:26;;;;;;;1.17;0.57;;;9.60;74.70;;;;;;5068141;28;20430;-78
2024/02/03 02:34:52;;;;;;;1.80;0.60;;;9.60;74.40;;;;;;5048313;28;20047;-79
2024/02/03 02:37:18;;;;;;;3.72;0.90;;;9.60;74.40;;;;;;5048746;28;20415;-78
2024/02/03 02:39:44;;;;;;;2.03;0.43;;;9.60;74.50;;;;;;5066276;28;20032;-79
2024/02/03 02:42:10;;;;;;;1.20;0.30;;;9.60;74.70;;;;;;5067394;28;20835;-79
2024/02/03 02:44:36;;;;;;;1.55;0.52;;;9.60;74.70;;;;;;5062288;28;20024;-79
2024/02/03 02:47:02;;;;;;;1.85;0.45;;;9.60;74.80;;;;;;5082746;28;20040;-78
2024/02/03 02:49:28;;;;;;;1.58;0.45;;;9.50;74.90;;;;;;5066941;28;20407;-78
2024/02/03 02:51:54;;;;;;;1.55;0.50;;;9.60;74.80;;;;;;5049184;28;20040;-79
2024/02/03 02:54:20;;;;;;;2.05;0.80;;;9.60;74.80;;;;;;5065525;28;20478;-80
2024/02/03 02:56:46;;;;;;;1.02;0.60;;;9.50;74.70;;;;;;5049610;28;20028;-79
2024/02/03 02:59:12;;;;;;;1.95;0.50;;;9.60;74.70;;;;;;5064106;28;20086;-79
2024/02/03 03:01:38;;;;;;;2.17;0.57;;;9.50;74.80;;;;;;5066452;28;20234;-78
2024/02/03 03:04:04;;;;;;;1.25;0.50;;;9.50;74.80;;;;;;5066344;28;20037;-77
2024/02/03 03:06:30;;;;;;;2.85;0.55;;;9.50;74.90;;;;;;5065904;28;20032;-77
2024/02/03 03:08:56;;;;;;;1.60;0.60;;;9.50;74.90;;;;;;5066635;28;20100;-77
2024/02/03 03:11:23;;;;;;;0.75;0.40;;;9.50;74.90;;;;;;5066662;28;20063;-77
2024/02/03 03:13:49;;;;;;;1.65;0.65;;;9.50;75.40;;;;;;5048526;28;20052;-77
2024/02/03 03:16:15;;;;;;;2.47;1.10;;;9.40;75.30;;;;;;5064571;28;20562;-78
2024/02/03 03:18:41;;;;;;;1.25;0.50;;;9.50;74.80;;;;;;5064819;28;20051;-77
2024/02/03 03:21:08;;;;;;;1.92;0.70;;;9.40;74.70;;;;;;5066411;28;20502;-77
2024/02/03 03:23:34;;;;;;;1.75;0.55;;;9.40;74.80;;;;;;5062642;28;20039;-77
2024/02/03 03:26:00;;;;;;;1.15;0.52;;;9.40;74.70;;;;;;5064680;28;20123;-77
2024/02/03 03:28:27;;;;;;;3.67;0.80;;;9.40;74.80;;;;;;5047323;28;20055;-77
2024/02/03 03:30:53;;;;;;;3.67;0.50;;;9.40;74.80;;;;;;5066028;28;20032;-78
2024/02/03 03:33:19;;;;;;;2.15;0.50;;;9.40;74.70;;;;;;5066590;28;20036;-79
2024/02/03 03:35:45;;;;;;;1.45;0.55;;;9.40;74.80;;;;;;5031917;28;20031;-78
2024/02/03 03:38:11;;;;;;;3.67;0.60;;;9.40;74.70;;;;;;5064622;28;20067;-78
2024/02/03 03:40:37;;;;;;;1.45;0.47;;;9.40;74.70;;;;;;5076952;28;20039;-78
2024/02/03 03:43:07;;;;;;;1.30;0.50;;;9.30;74.70;;;;;;5065893;28;20451;-78
2024/02/03 03:45:34;;;;;;;1.42;0.68;;;9.30;74.60;;;;;;5065447;28;20028;-79
2024/02/03 03:48:00;;;;;;;2.00;0.43;;;9.30;74.50;;;;;;5065253;28;20028;-77
2024/02/03 03:50:26;;;;;;;1.05;0.55;;;9.30;74.60;;;;;;5066277;28;20049;-78
2024/02/03 03:52:52;;;;;;;1.50;0.43;;;9.30;74.70;;;;;;5047525;28;20617;-78
2024/02/03 03:55:18;;;;;;;0.90;0.50;;;9.30;74.90;;;;;;5064524;28;20422;-79
2024/02/03 03:57:44;;;;;;;2.55;0.65;;;9.30;74.90;;;;;;5064661;28;20056;-79
2024/02/03 04:00:12;;;;;;;1.85;0.70;;;9.30;74.90;;;;;;5065013;28;20067;-79
2024/02/03 04:02:39;;;;;;;1.45;0.60;;;9.30;75.30;;;;;;5066714;28;20120;-78
2024/02/03 04:05:09;;;;;;;1.73;0.60;;;9.30;74.80;;;;;;5064834;28;20049;-78
2024/02/03 04:07:35;;;;;;;2.45;0.60;;;9.20;74.80;;;;;;5065205;28;20083;-78
2024/02/03 04:10:01;;;;;;;2.53;0.50;;;9.30;74.70;;;;;;5064949;28;20036;-78
2024/02/03 04:12:27;;;;;;;2.20;0.63;;;9.30;74.90;;;;;;5064930;28;20115;-78
2024/02/03 04:14:53;;;;;;;0.85;0.30;;;9.20;74.80;;;;;;5064785;28;20174;-78
2024/02/03 04:17:19;;;;;;;1.60;0.68;;;9.30;74.90;;;;;;5047396;28;20403;-79
2024/02/03 04:19:45;;;;;;;1.80;0.60;;;9.20;74.90;;;;;;5065545;28;20151;-78
2024/02/03 04:22:12;;;;;;;2.10;0.70;;;9.20;74.90;;;;;;5064656;28;21116;-79
2024/02/03 04:24:39;;;;;;;3.92;0.90;;;9.20;74.80;;;;;;5065897;28;20411;-77
2024/02/03 04:27:05;;;;;;;1.92;1.00;;;9.20;74.90;;;;;;5065090;28;20040;-78
2024/02/03 04:29:31;;;;;;;1.67;0.63;;;9.20;74.90;;;;;;5031102;28;20119;-78
2024/02/03 04:31:57;;;;;;;1.77;0.47;;;9.20;74.80;;;;;;5064319;28;20037;-77
2024/02/03 04:34:23;;;;;;;1.90;0.57;;;9.20;74.90;;;;;;5064501;28;20044;-78
2024/02/03 04:36:49;;;;;;;1.13;0.60;;;9.10;75.40;;;;;;5065496;28;20463;-79
2024/02/03 04:39:15;;;;;;;1.83;0.40;;;9.10;74.90;;;;;;5063835;28;20120;-78
2024/02/03 04:41:41;;;;;;;2.78;0.68;;;9.10;74.90;;;;;;5066109;28;20070;-78
2024/02/03 04:44:07;;;;;;;2.35;0.65;;;9.10;74.90;;;;;;5065883;28;20041;-80
2024/02/03 04:46:33;;;;;;;1.92;0.68;;;9.10;74.90;;;;;;5046411;28;20040;-78
2024/02/03 04:48:59;;;;;;;1.55;0.40;;;9.10;75.00;;;;;;5047400;28;20039;-78
2024/02/03 04:51:25;;;;;;;1.90;0.55;;;9.10;74.90;;;;;;5065691;28;20028;-78
2024/02/03 04:53:51;;;;;;;1.77;0.55;;;9.10;75.00;;;;;;5065831;28;20036;-78
2024/02/03 04:56:18;;;;;;;1.27;0.77;;;9.10;75.00;;;;;;5065710;28;20564;-80
2024/02/03 04:58:44;;;;;;;0.90;0.57;;;9.10;75.00;;;;;;5062998;28;20123;-79
2024/02/03 05:01:10;;;;;;;1.85;0.68;;;9.00;74.90;;;;;;5064428;28;20119;-80
2024/02/03 05:03:37;;;;;;;2.25;0.93;;;9.00;74.90;;;;;;5034115;28;20031;-80
2024/02/03 05:06:04;;;;;;;1.98;0.80;;;9.00;75.50;;;;;;5034762;28;20036;-80
2024/02/03 05:08:30;;;;;;;2.38;0.70;;;9.00;75.20;;;;;;5079866;28;20119;-81
2024/02/03 05:10:57;;;;;;;2.05;0.60;;;9.00;75.10;;;;;;5066770;28;20127;-80
2024/02/03 05:13:22;;;;;;;3.35;0.80;;;9.00;75.10;;;;;;5068174;28;20033;-81
2024/02/03 05:15:49;;;;;;;2.10;0.68;;;9.00;75.20;;;;;;5050784;28;20538;-81
2024/02/03 05:18:15;;;;;;;4.72;0.70;;;9.00;75.20;;;;;;5068188;28;20667;-81
2024/02/03 05:20:41;;;;;;;2.42;0.95;;;9.00;75.20;;;;;;5068517;28;20127;-80
2024/02/03 05:23:07;;;;;;;3.55;0.80;;;9.00;75.30;;;;;;5051121;28;20515;-80
2024/02/03 05:25:33;;;;;;;1.25;0.60;;;9.00;75.40;;;;;;5066927;28;20059;-81
2024/02/03 05:27:59;;;;;;;1.80;0.80;;;9.00;75.40;;;;;;5069138;28;20501;-80
2024/02/03 05:30:25;;;;;;;1.95;0.70;;;9.00;75.30;;;;;;5067236;28;20082;-81
2024/02/03 05:32:51;;;;;;;1.98;0.90;;;9.00;75.20;;;;;;5051521;28;20037;-82
2024/02/03 05:35:17;;;;;;;1.77;0.90;;;9.00;75.40;;;;;;5068645;28;20093;-82
2024/02/03 05:37:43;;;;;;;1.60;0.70;;;9.00;75.40;;;;;;5065666;28;20039;-81
2024/02/03 05:40:09;;;;;;;3.72;0.90;;;9.00;75.50;;;;;;5050713;28;20038;-79
2024/02/03 05:42:35;;;;;;;3.63;0.95;;;9.00;75.40;;;;;;5050081;28;20082;-80
2024/02/03 05:45:01;;;;;;;4.00;1.08;;;9.00;75.50;;;;;;5067773;28;20028;-79
2024/02/03 05:47:27;;;;;;;2.22;0.85;;;9.00;75.70;;;;;;5066039;28;20025;-77
2024/02/03 05:49:53;;;;;;;1.13;0.82;;;9.00;75.70;;;;;;5062038;28;20049;-77
2024/02/03 05:52:19;;;;;;;3.33;1.30;;;9.00;76.00;;;;;;5064396;28;20068;-76
2024/02/03 05:54:47;;;;;;;1.83;0.90;;;9.00;76.10;;;;;;5065735;28;20494;-77
2024/02/03 05:57:14;;;;;;;2.13;0.63;;;9.00;76.20;;;;;;5065478;28;20044;-77
2024/02/03 05:59:45;;;;;;;1.67;0.90;;;9.00;76.00;;;;;;5065778;28;20024;-77
2024/02/03 06:02:12;;;;;;;3.75;1.13;;;9.00;76.20;;;;;;5065345;28;20399;-79
2024/02/03 06:04:39;;;;;;;3.50;1.27;;;9.00;76.20;;;;;;5065627;28;20037;-78
2024/02/03 06:07:06;;;;;;;2.60;1.40;;;9.00;76.20;;;;;;5062762;28;20056;-81
2024/02/03 06:09:32;;;;;;;3.08;0.80;;;9.00;76.40;;;;;;5066886;28;20425;-79
2024/02/03 06:11:58;;;;;;;2.92;1.35;;;9.00;76.40;;;;;;5048397;28;20036;-79
2024/02/03 06:14:24;;;;;;;4.97;1.20;;;9.00;76.30;;;;;;5047885;28;20124;-80
2024/02/03 06:16:50;;;;;;;3.92;1.20;;;9.00;76.50;;;;;;5045575;28;20047;-82
2024/02/03 06:19:17;;;;;;;6.53;1.58;;;9.00;76.70;;;;;;5063274;28;20033;-83
2024/02/03 06:21:43;;;;;;;4.28;1.42;;;9.00;76.90;;;;;;5064076;28;20051;-80
2024/02/03 06:24:10;;;;;;;2.85;1.08;;;9.00;77.30;;;;;;5064424;28;20047;-84
2024/02/03 06:26:36;;;;;;;2.05;0.85;;;9.10;77.50;;;;;;5047350;28;20037;-80
2024/02/03 06:29:02;;;;;;;3.88;1.30;;;9.10;83.10;;;;;;5046638;28;20039;-83
2024/02/03 06:31:28;;;;;;;1.90;0.80;;;9.30;86.70;;;;;;5065785;28;20062;-80
2024/02/03 06:33:54;;;;;;;2.50;0.75;;;9.50;88.10;;;;;;5063963;28;20040;-78
2024/02/03 06:36:20;;;;;;;4.95;0.88;;;9.70;89.10;;;;;;5046644;28;20048;-80
2024/02/03 06:38:46;;;;;;;3.47;0.93;;;9.90;89.40;;;;;;5062697;28;20490;-84
2024/02/03 06:41:15;;;;;;;2.22;0.68;;;10.00;89.10;;;;;;5062589;28;20044;-82
2024/02/03 06:43:41;;;;;;;6.90;1.02;;;10.20;88.90;;;;;;5062512;28;20040;-79
2024/02/03 06:46:08;;;;;;;3.08;0.90;;;10.30;89.00;;;;;;5031504;28;20127;-79
2024/02/03 06:48:34;;;;;;;3.38;1.17;;;10.40;87.80;;;;;;5063353;28;20040;-79
2024/02/03 06:51:00;;;;;;;6.28;1.35;;;10.50;84.40;;;;;;5064021;28;20441;-79
2024/02/03 06:53:26;;;;;;;2.90;1.08;;;10.40;82.10;;;;;;5063701;28;20544;-78
2024/02/03 06:55:53;;;;;;;3.22;1.30;;;10.40;80.20;;;;;;5063407;28;20044;-78
2024/02/03 06:58:19;;;;;;;4.57;1.10;;;10.40;79.10;;;;;;5066008;28;20055;-77
2024/02/03 07:00:45;;;;;;;6.63;1.27;;;10.40;78.00;;;;;;5067837;28;20523;-80
2024/02/03 07:03:11;;;;;;;2.85;1.00;;;10.30;77.30;;;;;;5051352;28;20017;-80
2024/02/03 07:05:39;;;;;;;2.80;1.30;;;10.30;76.80;;;;;;5053540;28;20058;-79
2024/02/03 07:08:09;;;;;;;3.03;1.20;;;10.20;76.40;;;;;;5066194;28;20040;-81
2024/02/03 07:10:35;;;;;;;6.68;1.40;;;10.20;76.10;;;;;;5066526;28;20485;-80
2024/02/03 07:13:01;;;;;;;3.97;1.42;;;10.20;75.80;;;;;;5066282;28;20033;-79
2024/02/03 07:15:27;;;;;;;12.63;1.45;;;10.20;75.60;;;;;;5067548;28;20037;-79
2024/02/03 07:17:53;;;;;;;2.45;1.58;;;10.10;75.30;;;;;;5050506;28;20057;-78
2024/02/03 07:20:19;;;;;;;4.05;1.35;;;10.10;75.20;;;;;;5070400;28;20029;-80
2024/02/03 07:22:45;;;;;;;2.75;1.20;;;10.10;75.20;;;;;;5070773;28;20040;-81
2024/02/03 07:25:16;;;;;;;4.43;1.45;;;10.10;75.40;;;;;;5051499;28;20033;-79
2024/02/03 07:27:43;;;;;;;1.92;1.13;;;10.00;75.60;;;;;;5083924;28;20065;-81
2024/02/03 07:30:09;;;;;;;2.60;1.25;;;10.00;75.90;;;;;;5037055;28;20032;-81
2024/02/03 07:32:35;;;;;;;2.97;1.55;;;10.00;76.30;;;;;;5052866;28;21015;-80
2024/02/03 07:35:01;;;;;;;4.40;1.50;;;10.00;76.50;;;;;;5036309;28;20037;-79
2024/02/03 07:37:27;;;;;;;5.82;1.95;;;10.00;76.50;;;;;;5035723;28;20036;-79
2024/02/03 07:39:54;;;;;;;3.13;1.23;;;10.00;76.50;;;;;;5067874;28;20037;-81
2024/02/03 07:42:20;;;;;;;3.60;1.50;;;10.00;76.40;;;;;;5069225;28;20499;-83
2024/02/03 07:44:46;;;;;;;6.18;1.40;;;9.90;76.30;;;;;;5036477;28;20028;-82
2024/02/03 07:47:12;;;;;;;4.47;1.35;;;9.90;76.20;;;;;;5051120;28;20055;-82
2024/02/03 07:49:38;;;;;;;3.15;1.27;;;9.90;76.20;;;;;;5067803;28;20037;-81
2024/02/03 07:52:05;;;;;;;7.15;1.60;;;9.90;76.10;;;;;;5052049;28;20355;-80
2024/02/03 07:54:32;;;;;;;3.15;1.10;;;9.90;76.10;;;;;;5068973;28;20098;-80
2024/02/03 07:56:58;;;;;;;2.80;1.17;;;9.90;76.00;;;;;;5034500;28;20028;-79
2024/02/03 07:59:26;;;;;;;2.83;1.42;;;9.90;75.70;;;;;;5034747;28;20033;-79
2024/02/03 08:01:52;;;;;;;3.45;1.00;;;9.90;75.40;;;;;;5070162;28;20033;-80
2024/02/03 08:04:18;;;;;;;4.57;1.67;;;9.90;75.50;;;;;;5069811;28;20032;-78
2024/02/03 08:06:44;;;;;;;2.15;1.30;;;9.90;75.00;;;;;;5068960;28;20086;-81
2024/02/03 08:09:10;;;;;;;2.97;1.25;;;9.90;74.90;;;;;;5068738;28;20028;-79
2024/02/03 08:11:36;;;;;;;3.90;1.17;;;9.90;74.70;;;;;;5054067;28;20032;-79
2024/02/03 08:14:02;;;;;;;2.83;1.40;;;9.80;74.40;;;;;;5085953;28;20029;-79
2024/02/03 08:16:29;;;;;;;5.05;1.52;;;9.90;74.40;;;;;;5069384;28;20419;-78
2024/02/03 08:18:55;;;;;;;2.75;1.45;;;9.80;74.00;;;;;;5069132;28;20071;-78
2024/02/03 08:21:21;;;;;;;3.38;1.33;;;9.90;74.00;;;;;;5068788;28;20044;-80
2024/02/03 08:23:47;;;;;;;3.85;1.80;;;9.80;73.80;;;;;;5071705;28;20032;-81
2024/02/03 08:26:13;;;;;;;3.78;1.77;;;9.90;73.70;;;;;;5051534;28;20043;-81
2024/02/03 08:28:39;;;;;;;4.07;1.58;;;9.80;73.50;;;;;;5069876;28;20036;-80
2024/02/03 08:31:05;;;;;;;3.05;1.58;;;9.90;73.10;;;;;;5051666;28;20081;-80
2024/02/03 08:33:31;;;;;;;3.20;1.33;;;9.90;73.10;;;;;;5036033;28;20032;-81
2024/02/03 08:35:57;;;;;;;8.27;1.60;;;9.80;72.50;;;;;;5052721;28;20028;-81
2024/02/03 08:38:23;;;;;;;3.85;1.30;;;9.80;72.50;;;;;;5054474;28;20035;-79
2024/02/03 08:40:50;;;;;;;1.90;1.15;;;9.80;72.10;;;;;;5056159;28;20029;-80
2024/02/03 08:43:16;;;;;;;3.03;1.08;;;9.80;72.00;;;;;;5056020;28;20048;-80
2024/02/03 08:45:42;;;;;;;6.10;1.52;;;9.80;72.20;;;;;;5072871;28;20043;-77
2024/02/03 08:48:08;;;;;;;3.83;1.25;;;9.90;73.00;;;;;;5075100;28;20036;-76
2024/02/03 08:50:39;;;;;;;1.60;1.00;;;9.90;73.20;;;;;;5077590;28;20028;-79
2024/02/03 08:53:07;;;;;;;2.90;1.00;;;9.90;72.70;;;;;;5039975;28;20127;-80
2024/02/03 08:55:34;;;;;;;10.48;1.70;;;9.90;72.50;;;;;;5070820;28;20049;-79
2024/02/03 08:58:00;;;;;;;2.72;1.13;;;9.90;72.50;;;;;;5072036;28;20033;-77
2024/02/03 09:00:26;;;;;;;5.38;1.20;;;10.00;72.80;;;;;;5065712;28;20051;-80
2024/02/03 09:02:52;;;;;;;7.28;1.23;;;9.90;73.10;;;;;;5068482;28;20032;-80
2024/02/03 09:05:18;;;;;;;1.80;1.00;;;9.90;72.90;;;;;;5068948;28;20044;-79
2024/02/03 09:07:44;;;;;;;3.90;1.05;;;10.00;73.40;;;;;;5049346;28;20500;-78
2024/02/03 09:10:10;;;;;;;3.33;1.45;;;10.10;77.00;;;;;;5068910;28;20100;-78
2024/02/03 09:12:36;;;;;;;2.55;0.90;;;10.20;80.00;;;;;;5068429;28;20086;-78
2024/02/03 09:15:02;;;;;;;2.83;1.13;;;10.40;80.90;;;;;;5068015;28;20600;-81
2024/02/03 09:17:29;;;;;;;4.38;1.20;;;10.60;82.00;;;;;;5068910;28;20048;-79
2024/02/03 09:19:55;;;;;;;4.70;1.63;;;10.60;80.70;;;;;;5050611;28;20550;-80
2024/02/03 09:22:22;;;;;;;2.13;1.02;;;10.60;77.60;;;;;;5067852;28;20032;-85
2024/02/03 09:24:48;;;;;;;3.83;1.30;;;10.60;76.30;;;;;;5034773;28;20056;-86
2024/02/03 09:27:14;;;;;;;3.55;1.20;;;10.70;76.00;;;;;;5066355;28;20119;-81
2024/02/03 09:29:43;;;;;;;3.50;1.30;;;10.70;75.30;;;;;;5045192;28;20027;-82
2024/02/03 09:32:09;;;;;;;3.38;1.40;;;10.80;74.70;;;;;;5046386;28;20448;-82
2024/02/03 09:34:35;;;;;;;2.90;1.20;;;10.80;74.00;;;;;;5050292;28;20517;-80
2024/02/03 09:37:03;;;;;;;2.95;1.33;;;10.80;73.80;;;;;;5068856;28;20123;-80
2024/02/03 09:39:29;;;;;;;4.10;1.17;;;10.80;73.40;;;;;;5032838;28;20035;-80
2024/02/03 09:41:56;;;;;;;3.45;1.48;;;10.90;73.80;;;;;;5049753;28;20108;-79
2024/02/03 09:44:22;;;;;;;4.32;1.65;;;10.90;74.00;;;;;;5049792;28;20128;-79
2024/02/03 09:46:49;;;;;;;4.55;1.35;;;10.90;74.30;;;;;;5066590;28;20036;-82
2024/02/03 09:49:15;;;;;;;3.45;1.45;;;10.90;74.40;;;;;;5065146;28;20025;-81
2024/02/03 09:51:42;;;;;;;4.22;1.48;;;10.90;74.40;;;;;;5066474;28;20060;-81
2024/02/03 09:54:09;;;;;;;4.38;1.33;;;10.90;74.20;;;;;;5067196;28;20511;-81
2024/02/03 09:56:35;;;;;;;3.17;1.45;;;10.90;74.10;;;;;;5049999;28;20082;-81
2024/02/03 09:59:01;;;;;;;4.30;1.70;;;10.90;73.80;;;;;;5065868;28;20495;-82
2024/02/03 10:01:27;;;;;;;4.38;1.60;;;10.90;73.80;;;;;;5033573;28;20032;-83
2024/02/03 10:03:57;;;;;;;3.05;1.35;;;10.90;73.70;;;;;;5066536;28;20036;-83
2024/02/03 10:06:23;;;;;;;4.05;1.50;;;10.90;73.40;;;;;;5049818;28;20384;-82
2024/02/03 10:08:56;;;;;;;4.57;1.80;;;10.90;73.30;;;;;;5033345;28;20028;-84
2024/02/03 10:11:22;;;;;;;7.10;1.83;;;11.00;73.20;;;;;;5067038;28;20124;-84
2024/02/03 10:14:04;;;;;;;7.05;1.50;;;11.00;73.30;;;;;;5050482;28;20053;-82
2024/02/03 10:16:30;;;;;;;3.53;1.30;;;11.00;73.20;;;;;;5052646;28;20041;-84
2024/02/03 10:18:56;;;;;;;7.50;1.63;;;11.00;73.10;;;;;;5051092;28;20051;-85
2024/02/03 10:21:23;;;;;;;3.97;1.15;;;11.00;73.40;;;;;;5054076;28;20029;-85
2024/02/03 10:23:53;;;;;;;5.85;1.52;;;11.00;73.00;;;;;;5034151;28;20201;-84
2024/02/03 10:26:19;;;;;;;2.58;1.10;;;11.00;73.00;;;;;;5032453;28;20084;-80
2024/02/03 10:28:45;;;;;;;4.57;1.58;;;11.00;72.80;;;;;;5065471;28;20033;-81
2024/02/03 10:31:14;;;;;;;6.82;1.50;;;11.00;72.90;;;;;;5047982;28;20033;-85
2024/02/03 10:33:40;;;;;;;5.60;1.20;;;11.00;72.90;;;;;;5048585;28;20029;-82
2024/02/03 10:36:06;;;;;;;2.28;0.95;;;11.00;73.00;;;;;;5042886;28;20431;-83
2024/02/03 10:38:33;;;;;;;4.70;1.30;;;11.00;73.10;;;;;;5049399;28;20120;-82
2024/02/03 10:41:03;;;;;;;7.30;1.67;;;11.10;73.20;;;;;;5060490;28;20033;-82
2024/02/03 10:43:33;;;;;;;3.25;1.50;;;11.00;73.10;;;;;;5045106;28;20090;-81
2024/02/03 10:46:04;;;;;;;5.22;1.88;;;11.00;73.20;;;;;;5045117;28;20063;-82
2024/02/03 10:48:33;;;;;;;4.97;1.88;;;11.00;73.30;;;;;;5059960;28;20461;-80
2024/02/03 10:51:06;;;;;;;8.55;2.00;;;11.00;73.30;;;;;;5065318;28;20036;-80
2024/02/03 10:53:36;;;;;;;8.05;1.83;;;11.00;73.40;;;;;;5065269;28;20033;-80
2024/02/03 10:56:10;;;;;;;5.88;1.70;;;11.00;73.40;;;;;;5064941;28;20116;-82
2024/02/03 10:58:39;;;;;;;3.28;1.60;;;11.00;73.50;;;;;;5058312;28;20127;-81
2024/02/03 11:01:21;;;;;;;3.65;1.65;;;11.00;73.50;;;;;;5063044;28;20504;-81
2024/02/03 11:03:48;;;;;;;4.32;1.85;;;11.00;73.50;;;;;;5078905;28;20116;-82
2024/02/03 11:06:47;;;;;;;4.25;1.60;;;11.00;73.60;;;;;;5063243;28;20020;-77
2024/02/03 11:09:20;;;;;;;5.15;1.60;;;11.00;73.40;;;;;;5022919;28;20051;-78
2024/02/03 11:11:54;;;;;;;4.25;2.15;;;11.00;73.00;;;;;;5065356;28;20036;-79
2024/02/03 11:14:23;;;;;;;3.55;1.65;;;11.00;72.80;;;;;;5063706;28;20032;-79
2024/02/03 11:16:58;;;;;;;4.15;1.70;;;11.00;72.70;;;;;;5064422;28;20064;-80
2024/02/03 11:19:31;;;;;;;4.63;1.50;;;11.00;72.60;;;;;;5045142;28;20128;-79
2024/02/03 11:22:03;;;;;;;3.55;1.80;;;11.00;72.50;;;;;;5063580;28;20182;-80
2024/02/03 11:24:29;;;;;;;7.15;2.00;;;10.90;72.40;;;;;;5058284;28;20062;-80
2024/02/03 11:27:02;;;;;;;3.20;1.90;;;10.90;72.50;;;;;;5064495;28;20074;-82
2024/02/03 11:29:29;;;;;;;4.50;1.90;;;11.00;72.50;;;;;;5034201;28;20238;-82
2024/02/03 11:32:10;;;;;;;6.35;2.33;;;10.90;72.40;;;;;;5029802;28;20495;-77
2024/02/03 11:34:37;;;;;;;4.55;1.80;;;11.00;72.30;;;;;;5063448;28;20037;-79
2024/02/03 11:37:05;;;;;;;5.60;2.03;;;10.90;71.90;;;;;;5068998;28;20089;-84
2024/02/03 11:39:34;;;;;;;4.93;2.05;;;10.90;71.70;;;;;;5050116;28;20052;-84
2024/02/03 11:42:04;;;;;;;6.13;2.00;;;10.90;71.40;;;;;;5067138;28;20073;-79
2024/02/03 11:44:42;;;;;;;6.63;2.33;;;10.90;71.30;;;;;;5069273;28;20064;-82
2024/02/03 11:47:08;;;;;;;4.72;1.95;;;10.90;71.20;;;;;;5067811;28;20514;-79
2024/02/03 11:49:34;;;;;;;6.35;1.73;;;10.90;71.20;;;;;;5052799;28;20032;-79
2024/02/03 11:52:01;;;;;;;6.88;2.00;;;10.90;71.10;;;;;;5064386;28;20028;-81
2024/02/03 11:54:28;;;;;;;5.60;2.08;;;10.90;71.10;;;;;;5064571;28;20074;-83
2024/02/03 11:56:54;;;;;;;6.68;1.90;;;10.90;71.30;;;;;;5069695;28;20273;-84
2024/02/03 11:59:28;;;;;;;5.00;2.10;;;10.90;71.50;;;;;;5067297;28;20033;-82
2024/02/03 12:01:55;;;;;;;3.88;1.95;;;10.90;71.90;;;;;;5063322;28;20052;-87
2024/02/03 12:04:21;;;;;;;3.92;1.95;;;10.90;72.10;;;;;;5052943;28;20025;-85
2024/02/03 12:06:47;;;;;;;5.85;1.95;;;10.90;73.00;;;;;;5037778;28;20033;-85
2024/02/03 12:09:20;;;;;;;4.10;2.03;;;10.90;72.70;;;;;;5034706;28;20055;-86
2024/02/03 12:11:49;;;;;;;3.75;1.90;;;10.90;73.00;;;;;;5053101;28;20100;-84
2024/02/03 12:14:18;;;;;;;5.50;1.75;;;10.90;73.40;;;;;;5085007;28;20503;-84
2024/02/03 12:16:50;;;;;;;3.72;1.80;;;10.90;73.70;;;;;;5072597;28;20079;-90
2024/02/03 12:19:17;;;;;;;4.22;1.90;;;10.90;73.90;;;;;;5071401;28;20041;-87
2024/02/03 12:21:46;;;;;;;4.03;2.03;;;10.90;74.00;;;;;;5056912;28;20040;-89
2024/02/03 12:24:13;;;;;;;4.53;1.60;;;10.90;74.30;;;;;;5037935;28;20032;-87
2024/02/03 12:26:41;;;;;;;5.05;1.80;;;10.90;74.40;;;;;;5057370;28;20025;-89
2024/02/03 12:29:08;;;;;;;3.55;1.95;;;10.90;74.50;;;;;;5037332;28;20534;-86
2024/02/03 12:31:34;;;;;;;5.07;2.40;;;10.90;74.70;;;;;;5072882;28;20040;-85
2024/02/03 12:34:00;;;;;;;3.08;2.05;;;10.90;74.80;;;;;;5057602;28;20028;-89
2024/02/03 12:36:28;;;;;;;3.25;1.70;;;10.90;74.90;;;;;;5056868;28;20479;-84
2024/02/03 12:38:56;;;;;;;3.03;1.90;;;10.90;75.10;;;;;;5077226;28;20067;-83
2024/02/03 12:41:22;;;;;;;6.07;1.90;;;10.90;75.20;;;;;;5058669;28;20043;-89
2024/02/03 12:43:48;;;;;;;6.28;1.95;;;10.90;75.50;;;;;;5077112;28;20051;-89
2024/02/03 12:46:16;;;;;;;6.18;2.50;;;10.90;75.50;;;;;;5077549;28;20037;-86
2024/02/03 12:48:47;;;;;;;5.18;2.22;;;10.90;75.30;;;;;;5056586;28;20793;-84
2024/02/03 12:51:13;;;;;;;4.28;1.55;;;10.90;75.50;;;;;;5058319;28;20043;-83